Lorraine, New York
Current Conditions -  °F | °C
As of 5:56 PM on Wednesday 17 Dec 2014 (Local Time) from KART Reporting Station
Light Rain Light Rain  
Wind Chill: 30°   Ceiling: 1000
Heat Index: 38°   Visibility: 10mi
Dew Point: 32°   Wind: 14mph
Humidity: 79%   Direction: 250°WSW
Pressure: 29.84"   Gusts: 23mph
Location:  43.77°N, 75.96°W
Report Text: KART 172256Z AUTO 25012G20KT 10SM -RA BKN010 OVC014 03/00 A2984 RMK AO2 CIG 008V012 SLP106 P0000 T00330000
Loading
Personal Weather Stations






























Interactive Weather Map New forecast layout! Learn more

10-Day Weather Forecast

Advertisements
Track Severe Weather on mobile